sensor_id;sensor_type;location;lat;lon;timestamp;P1;durP1;ratioP1;P2;durP2;ratioP2
4500;SDS011;2263;54.654;9.410;2023-02-21T00:00:32;8.10;;;1.90;;
4500;SDS011;2263;54.654;9.410;2023-02-21T00:03:35;8.87;;;2.33;;
4500;SDS011;2263;54.654;9.410;2023-02-21T00:06:39;9.07;;;2.13;;
4500;SDS011;2263;54.654;9.410;2023-02-21T00:09:46;14.70;;;3.43;;
4500;SDS011;2263;54.654;9.410;2023-02-21T00:12:49;16.07;;;1.80;;
4500;SDS011;2263;54.654;9.410;2023-02-21T00:15:52;8.60;;;1.43;;
4500;SDS011;2263;54.654;9.410;2023-02-21T00:18:56;12.90;;;2.23;;
4500;SDS011;2263;54.654;9.410;2023-02-21T00:21:59;13.43;;;2.37;;
4500;SDS011;2263;54.654;9.410;2023-02-21T00:25:03;11.17;;;2.77;;
4500;SDS011;2263;54.654;9.410;2023-02-21T00:28:06;13.33;;;2.53;;
4500;SDS011;2263;54.654;9.410;2023-02-21T00:31:09;9.53;;;1.90;;
4500;SDS011;2263;54.654;9.410;2023-02-21T00:34:13;10.93;;;2.23;;
4500;SDS011;2263;54.654;9.410;2023-02-21T00:37:16;9.03;;;2.30;;
4500;SDS011;2263;54.654;9.410;2023-02-21T00:40:19;7.50;;;2.40;;
4500;SDS011;2263;54.654;9.410;2023-02-21T00:43:32;8.47;;;2.40;;
4500;SDS011;2263;54.654;9.410;2023-02-21T00:46:36;16.43;;;3.50;;
4500;SDS011;2263;54.654;9.410;2023-02-21T00:49:39;12.87;;;2.60;;
4500;SDS011;2263;54.654;9.410;2023-02-21T00:52:43;14.00;;;2.53;;
4500;SDS011;2263;54.654;9.410;2023-02-21T00:55:46;10.93;;;2.60;;
4500;SDS011;2263;54.654;9.410;2023-02-21T00:58:49;17.30;;;2.40;;
4500;SDS011;2263;54.654;9.410;2023-02-21T01:01:53;7.90;;;2.50;;
4500;SDS011;2263;54.654;9.410;2023-02-21T01:04:56;13.43;;;1.90;;
4500;SDS011;2263;54.654;9.410;2023-02-21T01:08:00;8.40;;;2.37;;
4500;SDS011;2263;54.654;9.410;2023-02-21T01:11:03;13.40;;;2.17;;
4500;SDS011;2263;54.654;9.410;2023-02-21T01:14:06;11.70;;;2.40;;
4500;SDS011;2263;54.654;9.410;2023-02-21T01:17:10;5.50;;;2.07;;
4500;SDS011;2263;54.654;9.410;2023-02-21T01:20:13;11.70;;;1.40;;
4500;SDS011;2263;54.654;9.410;2023-02-21T01:23:17;10.90;;;2.00;;
4500;SDS011;2263;54.654;9.410;2023-02-21T01:26:20;20.30;;;2.40;;
4500;SDS011;2263;54.654;9.410;2023-02-21T01:29:23;14.53;;;2.63;;
4500;SDS011;2263;54.654;9.410;2023-02-21T01:32:27;13.87;;;1.87;;
4500;SDS011;2263;54.654;9.410;2023-02-21T01:35:30;12.87;;;1.90;;
4500;SDS011;2263;54.654;9.410;2023-02-21T01:38:33;10.97;;;1.73;;
4500;SDS011;2263;54.654;9.410;2023-02-21T01:41:37;7.50;;;3.13;;
4500;SDS011;2263;54.654;9.410;2023-02-21T01:44:44;13.90;;;2.10;;
4500;SDS011;2263;54.654;9.410;2023-02-21T01:47:48;12.93;;;2.30;;
4500;SDS011;2263;54.654;9.410;2023-02-21T01:50:52;13.80;;;3.33;;
4500;SDS011;2263;54.654;9.410;2023-02-21T01:53:57;9.17;;;2.40;;
4500;SDS011;2263;54.654;9.410;2023-02-21T01:57:01;13.60;;;2.80;;
4500;SDS011;2263;54.654;9.410;2023-02-21T02:00:08;16.73;;;3.27;;
4500;SDS011;2263;54.654;9.410;2023-02-21T02:03:15;19.80;;;2.37;;
4500;SDS011;2263;54.654;9.410;2023-02-21T02:06:21;7.73;;;1.87;;
4500;SDS011;2263;54.654;9.410;2023-02-21T02:09:24;16.73;;;2.50;;
4500;SDS011;2263;54.654;9.410;2023-02-21T02:18:52;14.40;;;2.00;;
4500;SDS011;2263;54.654;9.410;2023-02-21T02:24:52;17.63;;;2.43;;
4500;SDS011;2263;54.654;9.410;2023-02-21T02:34:22;29.73;;;4.07;;
4500;SDS011;2263;54.654;9.410;2023-02-21T02:37:36;18.93;;;3.13;;
4500;SDS011;2263;54.654;9.410;2023-02-21T02:40:56;28.77;;;3.47;;
4500;SDS011;2263;54.654;9.410;2023-02-21T02:46:34;10.83;;;2.80;;
4500;SDS011;2263;54.654;9.410;2023-02-21T02:49:23;18.50;;;3.80;;
4500;SDS011;2263;54.654;9.410;2023-02-21T02:52:10;20.23;;;3.33;;
4500;SDS011;2263;54.654;9.410;2023-02-21T02:54:59;14.47;;;3.20;;
4500;SDS011;2263;54.654;9.410;2023-02-21T02:57:45;12.90;;;2.13;;
4500;SDS011;2263;54.654;9.410;2023-02-21T03:00:32;23.37;;;3.70;;
4500;SDS011;2263;54.654;9.410;2023-02-21T03:09:51;18.80;;;2.97;;
4500;SDS011;2263;54.654;9.410;2023-02-21T03:16:24;25.23;;;3.63;;
4500;SDS011;2263;54.654;9.410;2023-02-21T03:19:26;17.43;;;2.67;;
4500;SDS011;2263;54.654;9.410;2023-02-21T03:22:18;17.30;;;3.00;;
4500;SDS011;2263;54.654;9.410;2023-02-21T03:25:07;25.33;;;4.20;;
4500;SDS011;2263;54.654;9.410;2023-02-21T03:27:52;18.70;;;3.07;;
4500;SDS011;2263;54.654;9.410;2023-02-21T03:30:37;12.77;;;3.80;;
4500;SDS011;2263;54.654;9.410;2023-02-21T03:33:25;16.40;;;3.10;;
4500;SDS011;2263;54.654;9.410;2023-02-21T03:36:09;21.17;;;4.30;;
4500;SDS011;2263;54.654;9.410;2023-02-21T03:38:54;15.30;;;3.07;;
4500;SDS011;2263;54.654;9.410;2023-02-21T03:41:39;25.53;;;2.90;;
4500;SDS011;2263;54.654;9.410;2023-02-21T03:44:23;19.77;;;3.00;;
4500;SDS011;2263;54.654;9.410;2023-02-21T03:47:08;17.73;;;4.70;;
4500;SDS011;2263;54.654;9.410;2023-02-21T03:49:52;25.17;;;4.03;;
4500;SDS011;2263;54.654;9.410;2023-02-21T03:52:37;10.93;;;2.33;;
4500;SDS011;2263;54.654;9.410;2023-02-21T03:55:21;16.50;;;3.50;;
4500;SDS011;2263;54.654;9.410;2023-02-21T03:58:05;19.10;;;4.60;;
4500;SDS011;2263;54.654;9.410;2023-02-21T04:00:50;15.33;;;4.10;;
4500;SDS011;2263;54.654;9.410;2023-02-21T04:03:36;17.90;;;3.87;;
4500;SDS011;2263;54.654;9.410;2023-02-21T04:06:21;21.27;;;5.00;;
4500;SDS011;2263;54.654;9.410;2023-02-21T04:09:05;16.80;;;3.60;;
4500;SDS011;2263;54.654;9.410;2023-02-21T04:11:50;19.20;;;3.50;;
4500;SDS011;2263;54.654;9.410;2023-02-21T04:14:34;27.00;;;4.27;;
4500;SDS011;2263;54.654;9.410;2023-02-21T04:17:19;35.67;;;4.83;;
4500;SDS011;2263;54.654;9.410;2023-02-21T04:20:04;34.37;;;6.10;;
4500;SDS011;2263;54.654;9.410;2023-02-21T04:22:49;20.33;;;4.30;;
4500;SDS011;2263;54.654;9.410;2023-02-21T04:25:33;24.43;;;3.63;;
4500;SDS011;2263;54.654;9.410;2023-02-21T04:28:17;28.63;;;4.40;;
4500;SDS011;2263;54.654;9.410;2023-02-21T04:31:02;22.80;;;3.00;;
4500;SDS011;2263;54.654;9.410;2023-02-21T04:33:47;24.33;;;4.30;;
4500;SDS011;2263;54.654;9.410;2023-02-21T04:36:32;24.67;;;4.53;;
4500;SDS011;2263;54.654;9.410;2023-02-21T04:39:16;23.00;;;4.03;;
4500;SDS011;2263;54.654;9.410;2023-02-21T04:42:01;26.33;;;4.20;;
4500;SDS011;2263;54.654;9.410;2023-02-21T04:44:46;17.50;;;3.70;;
4500;SDS011;2263;54.654;9.410;2023-02-21T04:47:30;26.27;;;4.87;;
4500;SDS011;2263;54.654;9.410;2023-02-21T04:50:15;24.70;;;3.70;;
4500;SDS011;2263;54.654;9.410;2023-02-21T04:52:59;20.73;;;7.63;;
4500;SDS011;2263;54.654;9.410;2023-02-21T04:55:44;14.50;;;2.80;;
4500;SDS011;2263;54.654;9.410;2023-02-21T04:58:28;18.80;;;3.67;;
4500;SDS011;2263;54.654;9.410;2023-02-21T05:01:13;25.00;;;4.43;;
4500;SDS011;2263;54.654;9.410;2023-02-21T05:03:59;25.17;;;4.07;;
4500;SDS011;2263;54.654;9.410;2023-02-21T05:06:43;17.27;;;4.17;;
4500;SDS011;2263;54.654;9.410;2023-02-21T05:09:28;21.83;;;4.50;;
4500;SDS011;2263;54.654;9.410;2023-02-21T05:12:13;23.67;;;3.70;;
4500;SDS011;2263;54.654;9.410;2023-02-21T05:14:58;30.90;;;4.70;;
4500;SDS011;2263;54.654;9.410;2023-02-21T05:17:43;14.60;;;3.30;;
4500;SDS011;2263;54.654;9.410;2023-02-21T05:20:28;28.07;;;5.00;;
4500;SDS011;2263;54.654;9.410;2023-02-21T05:23:13;18.63;;;4.37;;
4500;SDS011;2263;54.654;9.410;2023-02-21T05:26:06;17.47;;;4.47;;
4500;SDS011;2263;54.654;9.410;2023-02-21T05:28:55;16.83;;;5.23;;
4500;SDS011;2263;54.654;9.410;2023-02-21T05:31:43;33.33;;;5.10;;
4500;SDS011;2263;54.654;9.410;2023-02-21T05:34:28;24.97;;;4.20;;
4500;SDS011;2263;54.654;9.410;2023-02-21T05:37:14;21.67;;;3.70;;
4500;SDS011;2263;54.654;9.410;2023-02-21T05:40:00;23.60;;;4.20;;
4500;SDS011;2263;54.654;9.410;2023-02-21T05:42:44;36.87;;;5.63;;
4500;SDS011;2263;54.654;9.410;2023-02-21T05:45:28;16.43;;;2.47;;
4500;SDS011;2263;54.654;9.410;2023-02-21T05:48:13;27.77;;;3.40;;
4500;SDS011;2263;54.654;9.410;2023-02-21T05:50:58;31.30;;;6.10;;
4500;SDS011;2263;54.654;9.410;2023-02-21T05:53:42;21.23;;;4.60;;
4500;SDS011;2263;54.654;9.410;2023-02-21T05:56:27;29.33;;;3.87;;
4500;SDS011;2263;54.654;9.410;2023-02-21T05:59:12;23.00;;;3.97;;
4500;SDS011;2263;54.654;9.410;2023-02-21T06:01:57;18.07;;;2.73;;
4500;SDS011;2263;54.654;9.410;2023-02-21T06:04:42;25.37;;;5.43;;
4500;SDS011;2263;54.654;9.410;2023-02-21T06:07:26;37.53;;;5.50;;
4500;SDS011;2263;54.654;9.410;2023-02-21T06:10:11;19.30;;;3.60;;
4500;SDS011;2263;54.654;9.410;2023-02-21T06:12:55;21.37;;;3.70;;
4500;SDS011;2263;54.654;9.410;2023-02-21T06:15:40;24.77;;;4.93;;
4500;SDS011;2263;54.654;9.410;2023-02-21T06:18:27;21.40;;;4.27;;
4500;SDS011;2263;54.654;9.410;2023-02-21T06:21:11;17.10;;;4.37;;
4500;SDS011;2263;54.654;9.410;2023-02-21T06:23:56;24.63;;;4.27;;
4500;SDS011;2263;54.654;9.410;2023-02-21T06:26:41;26.83;;;4.23;;
4500;SDS011;2263;54.654;9.410;2023-02-21T06:29:25;16.07;;;3.63;;
4500;SDS011;2263;54.654;9.410;2023-02-21T06:32:10;16.23;;;3.93;;
4500;SDS011;2263;54.654;9.410;2023-02-21T06:34:54;19.80;;;4.17;;
4500;SDS011;2263;54.654;9.410;2023-02-21T06:37:38;20.77;;;3.80;;
4500;SDS011;2263;54.654;9.410;2023-02-21T06:40:23;13.50;;;3.27;;
4500;SDS011;2263;54.654;9.410;2023-02-21T06:43:07;18.30;;;3.27;;
4500;SDS011;2263;54.654;9.410;2023-02-21T06:45:52;18.23;;;3.10;;
4500;SDS011;2263;54.654;9.410;2023-02-21T06:48:36;23.70;;;4.67;;
4500;SDS011;2263;54.654;9.410;2023-02-21T06:51:21;19.57;;;3.27;;
4500;SDS011;2263;54.654;9.410;2023-02-21T06:54:12;18.73;;;3.30;;
4500;SDS011;2263;54.654;9.410;2023-02-21T06:56:56;22.53;;;5.60;;
4500;SDS011;2263;54.654;9.410;2023-02-21T06:59:42;25.73;;;5.40;;
4500;SDS011;2263;54.654;9.410;2023-02-21T07:02:27;32.27;;;4.70;;
4500;SDS011;2263;54.654;9.410;2023-02-21T07:05:11;26.67;;;5.00;;
4500;SDS011;2263;54.654;9.410;2023-02-21T07:07:56;24.63;;;5.20;;
4500;SDS011;2263;54.654;9.410;2023-02-21T07:10:40;21.00;;;3.33;;
4500;SDS011;2263;54.654;9.410;2023-02-21T07:13:25;29.80;;;6.33;;
4500;SDS011;2263;54.654;9.410;2023-02-21T07:16:09;16.43;;;3.90;;
4500;SDS011;2263;54.654;9.410;2023-02-21T07:18:54;19.43;;;3.80;;
4500;SDS011;2263;54.654;9.410;2023-02-21T07:21:38;27.40;;;3.37;;
4500;SDS011;2263;54.654;9.410;2023-02-21T07:24:23;27.57;;;3.80;;
4500;SDS011;2263;54.654;9.410;2023-02-21T07:27:08;30.90;;;4.53;;
4500;SDS011;2263;54.654;9.410;2023-02-21T07:29:52;23.53;;;3.83;;
4500;SDS011;2263;54.654;9.410;2023-02-21T07:32:37;23.47;;;3.80;;
4500;SDS011;2263;54.654;9.410;2023-02-21T07:35:21;18.57;;;4.23;;
4500;SDS011;2263;54.654;9.410;2023-02-21T07:38:05;24.57;;;3.67;;
4500;SDS011;2263;54.654;9.410;2023-02-21T07:40:50;14.53;;;4.37;;
4500;SDS011;2263;54.654;9.410;2023-02-21T07:43:37;22.70;;;6.17;;
4500;SDS011;2263;54.654;9.410;2023-02-21T07:46:24;29.40;;;3.97;;
4500;SDS011;2263;54.654;9.410;2023-02-21T07:49:10;21.50;;;3.87;;
4500;SDS011;2263;54.654;9.410;2023-02-21T07:51:55;35.77;;;5.80;;
4500;SDS011;2263;54.654;9.410;2023-02-21T07:54:39;24.33;;;3.90;;
4500;SDS011;2263;54.654;9.410;2023-02-21T07:57:24;23.83;;;4.10;;
4500;SDS011;2263;54.654;9.410;2023-02-21T08:00:09;25.50;;;5.40;;
4500;SDS011;2263;54.654;9.410;2023-02-21T08:02:54;18.80;;;5.20;;
4500;SDS011;2263;54.654;9.410;2023-02-21T08:05:38;32.07;;;4.43;;
4500;SDS011;2263;54.654;9.410;2023-02-21T08:08:23;37.87;;;5.10;;
4500;SDS011;2263;54.654;9.410;2023-02-21T08:11:08;23.80;;;3.30;;
4500;SDS011;2263;54.654;9.410;2023-02-21T08:13:53;30.27;;;4.27;;
4500;SDS011;2263;54.654;9.410;2023-02-21T08:16:37;30.87;;;3.60;;
4500;SDS011;2263;54.654;9.410;2023-02-21T08:19:22;21.57;;;4.30;;
4500;SDS011;2263;54.654;9.410;2023-02-21T08:22:09;20.13;;;4.50;;
4500;SDS011;2263;54.654;9.410;2023-02-21T08:24:54;21.33;;;4.80;;
4500;SDS011;2263;54.654;9.410;2023-02-21T08:27:39;19.63;;;3.97;;
4500;SDS011;2263;54.654;9.410;2023-02-21T08:30:26;30.40;;;4.07;;
4500;SDS011;2263;54.654;9.410;2023-02-21T08:33:11;22.07;;;4.93;;
4500;SDS011;2263;54.654;9.410;2023-02-21T08:35:55;20.27;;;3.70;;
4500;SDS011;2263;54.654;9.410;2023-02-21T08:38:40;29.13;;;5.73;;
4500;SDS011;2263;54.654;9.410;2023-02-21T08:41:34;23.87;;;4.30;;
4500;SDS011;2263;54.654;9.410;2023-02-21T08:44:19;20.73;;;4.87;;
4500;SDS011;2263;54.654;9.410;2023-02-21T08:47:07;26.17;;;4.57;;
4500;SDS011;2263;54.654;9.410;2023-02-21T08:49:51;22.93;;;5.00;;
4500;SDS011;2263;54.654;9.410;2023-02-21T08:52:35;12.40;;;3.30;;
4500;SDS011;2263;54.654;9.410;2023-02-21T08:55:20;26.93;;;6.23;;
4500;SDS011;2263;54.654;9.410;2023-02-21T08:58:05;21.07;;;3.80;;
4500;SDS011;2263;54.654;9.410;2023-02-21T09:00:50;20.07;;;3.90;;
4500;SDS011;2263;54.654;9.410;2023-02-21T09:03:35;21.43;;;5.50;;
4500;SDS011;2263;54.654;9.410;2023-02-21T09:06:19;30.27;;;5.00;;
4500;SDS011;2263;54.654;9.410;2023-02-21T09:09:03;23.90;;;4.00;;
4500;SDS011;2263;54.654;9.410;2023-02-21T09:11:48;29.47;;;5.10;;
4500;SDS011;2263;54.654;9.410;2023-02-21T09:14:35;24.33;;;3.80;;
4500;SDS011;2263;54.654;9.410;2023-02-21T09:17:21;33.17;;;3.63;;
4500;SDS011;2263;54.654;9.410;2023-02-21T09:20:06;23.43;;;3.00;;
4500;SDS011;2263;54.654;9.410;2023-02-21T09:22:53;38.93;;;6.00;;
4500;SDS011;2263;54.654;9.410;2023-02-21T09:25:37;29.00;;;3.60;;
4500;SDS011;2263;54.654;9.410;2023-02-21T09:28:22;27.00;;;4.53;;
4500;SDS011;2263;54.654;9.410;2023-02-21T09:31:07;18.70;;;4.73;;
4500;SDS011;2263;54.654;9.410;2023-02-21T09:33:52;30.00;;;4.67;;
4500;SDS011;2263;54.654;9.410;2023-02-21T09:36:36;29.67;;;4.10;;
4500;SDS011;2263;54.654;9.410;2023-02-21T09:39:21;30.17;;;5.27;;
4500;SDS011;2263;54.654;9.410;2023-02-21T09:42:08;32.63;;;5.40;;
4500;SDS011;2263;54.654;9.410;2023-02-21T09:44:57;21.53;;;4.60;;
4500;SDS011;2263;54.654;9.410;2023-02-21T09:47:42;29.67;;;4.50;;
4500;SDS011;2263;54.654;9.410;2023-02-21T09:50:32;15.27;;;4.20;;
4500;SDS011;2263;54.654;9.410;2023-02-21T09:53:27;24.03;;;4.80;;
4500;SDS011;2263;54.654;9.410;2023-02-21T09:56:20;32.07;;;4.53;;
4500;SDS011;2263;54.654;9.410;2023-02-21T09:59:09;20.27;;;3.70;;
4500;SDS011;2263;54.654;9.410;2023-02-21T10:08:37;29.47;;;4.40;;
4500;SDS011;2263;54.654;9.410;2023-02-21T10:18:14;19.37;;;4.50;;
4500;SDS011;2263;54.654;9.410;2023-02-21T10:21:29;27.43;;;5.53;;
4500;SDS011;2263;54.654;9.410;2023-02-21T10:24:14;23.40;;;5.27;;
4500;SDS011;2263;54.654;9.410;2023-02-21T10:27:03;29.53;;;4.20;;
4500;SDS011;2263;54.654;9.410;2023-02-21T10:29:55;31.00;;;4.83;;
4500;SDS011;2263;54.654;9.410;2023-02-21T10:32:44;30.73;;;5.03;;
4500;SDS011;2263;54.654;9.410;2023-02-21T10:35:29;27.20;;;4.27;;
4500;SDS011;2263;54.654;9.410;2023-02-21T10:38:15;24.27;;;5.43;;
4500;SDS011;2263;54.654;9.410;2023-02-21T10:41:03;18.30;;;3.67;;
4500;SDS011;2263;54.654;9.410;2023-02-21T10:43:53;23.77;;;3.60;;
4500;SDS011;2263;54.654;9.410;2023-02-21T10:47:15;22.70;;;4.40;;
4500;SDS011;2263;54.654;9.410;2023-02-21T10:50:11;20.67;;;4.57;;
4500;SDS011;2263;54.654;9.410;2023-02-21T10:52:55;23.53;;;4.40;;
4500;SDS011;2263;54.654;9.410;2023-02-21T10:55:40;27.40;;;4.33;;
4500;SDS011;2263;54.654;9.410;2023-02-21T10:58:25;32.00;;;4.80;;
4500;SDS011;2263;54.654;9.410;2023-02-21T11:01:19;27.17;;;5.43;;
4500;SDS011;2263;54.654;9.410;2023-02-21T11:07:03;15.33;;;4.00;;
4500;SDS011;2263;54.654;9.410;2023-02-21T11:09:51;27.87;;;4.30;;
4500;SDS011;2263;54.654;9.410;2023-02-21T11:12:38;27.53;;;4.30;;
4500;SDS011;2263;54.654;9.410;2023-02-21T11:15:22;25.50;;;5.83;;
4500;SDS011;2263;54.654;9.410;2023-02-21T11:18:23;23.20;;;4.00;;
4500;SDS011;2263;54.654;9.410;2023-02-21T11:21:10;26.77;;;4.70;;
4500;SDS011;2263;54.654;9.410;2023-02-21T11:23:59;16.77;;;3.43;;
4500;SDS011;2263;54.654;9.410;2023-02-21T11:26:47;16.47;;;4.47;;
4500;SDS011;2263;54.654;9.410;2023-02-21T11:29:35;29.83;;;4.63;;
4500;SDS011;2263;54.654;9.410;2023-02-21T11:32:24;15.03;;;3.60;;
4500;SDS011;2263;54.654;9.410;2023-02-21T11:35:33;22.00;;;6.90;;
4500;SDS011;2263;54.654;9.410;2023-02-21T11:38:35;19.33;;;3.43;;
4500;SDS011;2263;54.654;9.410;2023-02-21T11:41:50;28.93;;;4.03;;
4500;SDS011;2263;54.654;9.410;2023-02-21T11:44:37;20.20;;;4.60;;
4500;SDS011;2263;54.654;9.410;2023-02-21T11:47:25;21.10;;;5.10;;
4500;SDS011;2263;54.654;9.410;2023-02-21T11:53:06;19.90;;;4.33;;
4500;SDS011;2263;54.654;9.410;2023-02-21T11:56:04;19.77;;;4.63;;
4500;SDS011;2263;54.654;9.410;2023-02-21T11:59:52;22.03;;;3.80;;
4500;SDS011;2263;54.654;9.410;2023-02-21T12:02:35;31.17;;;5.03;;
4500;SDS011;2263;54.654;9.410;2023-02-21T12:08:38;38.90;;;3.93;;
4500;SDS011;2263;54.654;9.410;2023-02-21T12:20:23;22.23;;;4.37;;
4500;SDS011;2263;54.654;9.410;2023-02-21T12:26:26;16.57;;;3.40;;
4500;SDS011;2263;54.654;9.410;2023-02-21T12:38:26;28.40;;;3.07;;
4500;SDS011;2263;54.654;9.410;2023-02-21T12:50:32;23.77;;;4.33;;
4500;SDS011;2263;54.654;9.410;2023-02-21T12:56:45;18.07;;;3.60;;
4500;SDS011;2263;54.654;9.410;2023-02-21T13:05:50;26.77;;;4.20;;
4500;SDS011;2263;54.654;9.410;2023-02-21T13:08:52;17.77;;;3.00;;
4500;SDS011;2263;54.654;9.410;2023-02-21T13:11:58;12.60;;;3.57;;
4500;SDS011;2263;54.654;9.410;2023-02-21T13:14:59;35.03;;;7.23;;
4500;SDS011;2263;54.654;9.410;2023-02-21T13:18:10;17.00;;;4.27;;
4500;SDS011;2263;54.654;9.410;2023-02-21T13:21:11;25.20;;;4.50;;
4500;SDS011;2263;54.654;9.410;2023-02-21T13:27:24;12.13;;;4.33;;
4500;SDS011;2263;54.654;9.410;2023-02-21T13:33:29;21.33;;;4.93;;
4500;SDS011;2263;54.654;9.410;2023-02-21T13:39:21;25.10;;;5.50;;
4500;SDS011;2263;54.654;9.410;2023-02-21T13:42:18;25.60;;;4.43;;
4500;SDS011;2263;54.654;9.410;2023-02-21T13:50:49;21.07;;;5.33;;
4500;SDS011;2263;54.654;9.410;2023-02-21T13:56:55;29.40;;;4.20;;
4500;SDS011;2263;54.654;9.410;2023-02-21T13:59:39;21.03;;;3.70;;
4500;SDS011;2263;54.654;9.410;2023-02-21T14:02:28;23.10;;;3.13;;
4500;SDS011;2263;54.654;9.410;2023-02-21T14:05:15;16.70;;;4.53;;
4500;SDS011;2263;54.654;9.410;2023-02-21T14:08:05;25.80;;;4.20;;
4500;SDS011;2263;54.654;9.410;2023-02-21T14:10:51;14.07;;;3.50;;
4500;SDS011;2263;54.654;9.410;2023-02-21T14:13:48;20.23;;;4.97;;
4500;SDS011;2263;54.654;9.410;2023-02-21T14:22:25;19.43;;;3.30;;
4500;SDS011;2263;54.654;9.410;2023-02-21T14:25:16;15.43;;;3.50;;
4500;SDS011;2263;54.654;9.410;2023-02-21T14:28:10;20.87;;;5.10;;
4500;SDS011;2263;54.654;9.410;2023-02-21T14:34:38;13.60;;;4.70;;
4500;SDS011;2263;54.654;9.410;2023-02-21T14:37:37;17.50;;;3.90;;
4500;SDS011;2263;54.654;9.410;2023-02-21T14:40:26;28.30;;;5.37;;
4500;SDS011;2263;54.654;9.410;2023-02-21T14:47:04;39.80;;;6.30;;
4500;SDS011;2263;54.654;9.410;2023-02-21T15:08:40;28.03;;;5.30;;
4500;SDS011;2263;54.654;9.410;2023-02-21T15:11:30;22.07;;;3.40;;
4500;SDS011;2263;54.654;9.410;2023-02-21T15:14:21;22.17;;;4.13;;
4500;SDS011;2263;54.654;9.410;2023-02-21T15:17:12;14.40;;;3.40;;
4500;SDS011;2263;54.654;9.410;2023-02-21T15:20:01;11.23;;;2.90;;
4500;SDS011;2263;54.654;9.410;2023-02-21T15:23:21;19.87;;;4.63;;
4500;SDS011;2263;54.654;9.410;2023-02-21T15:26:22;20.17;;;5.03;;
4500;SDS011;2263;54.654;9.410;2023-02-21T15:29:11;16.33;;;2.97;;
4500;SDS011;2263;54.654;9.410;2023-02-21T15:31:57;17.97;;;3.57;;
4500;SDS011;2263;54.654;9.410;2023-02-21T15:34:44;24.27;;;4.47;;
4500;SDS011;2263;54.654;9.410;2023-02-21T15:37:29;18.90;;;3.10;;
4500;SDS011;2263;54.654;9.410;2023-02-21T15:40:18;22.33;;;4.37;;
4500;SDS011;2263;54.654;9.410;2023-02-21T15:43:05;14.60;;;3.00;;
4500;SDS011;2263;54.654;9.410;2023-02-21T15:45:53;26.40;;;4.70;;
4500;SDS011;2263;54.654;9.410;2023-02-21T15:48:40;33.20;;;5.17;;
4500;SDS011;2263;54.654;9.410;2023-02-21T15:51:25;14.63;;;3.13;;
4500;SDS011;2263;54.654;9.410;2023-02-21T16:09:22;22.17;;;4.13;;
4500;SDS011;2263;54.654;9.410;2023-02-21T16:14:58;31.53;;;5.63;;
4500;SDS011;2263;54.654;9.410;2023-02-21T16:17:50;21.13;;;3.50;;
4500;SDS011;2263;54.654;9.410;2023-02-21T16:20:40;22.73;;;5.20;;
4500;SDS011;2263;54.654;9.410;2023-02-21T16:26:19;38.83;;;9.23;;
4500;SDS011;2263;54.654;9.410;2023-02-21T16:29:10;29.07;;;6.17;;
4500;SDS011;2263;54.654;9.410;2023-02-21T16:31:54;28.67;;;4.93;;
4500;SDS011;2263;54.654;9.410;2023-02-21T16:34:39;21.07;;;4.60;;
4500;SDS011;2263;54.654;9.410;2023-02-21T16:37:23;23.63;;;5.80;;
4500;SDS011;2263;54.654;9.410;2023-02-21T16:40:12;26.13;;;6.07;;
4500;SDS011;2263;54.654;9.410;2023-02-21T16:43:00;18.57;;;4.40;;
4500;SDS011;2263;54.654;9.410;2023-02-21T16:45:46;13.40;;;3.50;;
4500;SDS011;2263;54.654;9.410;2023-02-21T16:48:32;21.53;;;4.37;;
4500;SDS011;2263;54.654;9.410;2023-02-21T16:51:16;44.63;;;13.03;;
4500;SDS011;2263;54.654;9.410;2023-02-21T16:54:01;45.23;;;15.07;;
4500;SDS011;2263;54.654;9.410;2023-02-21T16:56:47;34.60;;;8.27;;
4500;SDS011;2263;54.654;9.410;2023-02-21T16:59:34;20.07;;;7.13;;
4500;SDS011;2263;54.654;9.410;2023-02-21T17:02:19;26.13;;;9.57;;
4500;SDS011;2263;54.654;9.410;2023-02-21T17:05:05;36.77;;;10.60;;
4500;SDS011;2263;54.654;9.410;2023-02-21T17:07:50;23.17;;;9.00;;
4500;SDS011;2263;54.654;9.410;2023-02-21T17:10:36;25.73;;;8.63;;
4500;SDS011;2263;54.654;9.410;2023-02-21T17:13:20;33.73;;;8.57;;
4500;SDS011;2263;54.654;9.410;2023-02-21T17:16:05;25.43;;;8.60;;
4500;SDS011;2263;54.654;9.410;2023-02-21T17:18:49;26.47;;;8.53;;
4500;SDS011;2263;54.654;9.410;2023-02-21T17:21:34;20.37;;;8.30;;
4500;SDS011;2263;54.654;9.410;2023-02-21T17:24:18;21.17;;;8.93;;
4500;SDS011;2263;54.654;9.410;2023-02-21T17:27:03;29.40;;;8.30;;
4500;SDS011;2263;54.654;9.410;2023-02-21T17:29:47;14.40;;;6.40;;
4500;SDS011;2263;54.654;9.410;2023-02-21T17:32:32;19.40;;;5.37;;
4500;SDS011;2263;54.654;9.410;2023-02-21T17:35:17;22.63;;;6.70;;
4500;SDS011;2263;54.654;9.410;2023-02-21T17:38:03;24.27;;;6.30;;
4500;SDS011;2263;54.654;9.410;2023-02-21T17:40:48;36.87;;;8.07;;
4500;SDS011;2263;54.654;9.410;2023-02-21T17:43:32;23.00;;;6.00;;
4500;SDS011;2263;54.654;9.410;2023-02-21T17:46:18;23.80;;;5.87;;
4500;SDS011;2263;54.654;9.410;2023-02-21T17:49:03;16.93;;;6.60;;
4500;SDS011;2263;54.654;9.410;2023-02-21T17:51:47;17.40;;;5.67;;
4500;SDS011;2263;54.654;9.410;2023-02-21T17:54:33;22.03;;;6.63;;
4500;SDS011;2263;54.654;9.410;2023-02-21T17:57:17;22.33;;;5.23;;
4500;SDS011;2263;54.654;9.410;2023-02-21T18:00:06;19.10;;;4.77;;
4500;SDS011;2263;54.654;9.410;2023-02-21T18:02:56;17.60;;;5.90;;
4500;SDS011;2263;54.654;9.410;2023-02-21T18:05:40;25.67;;;5.27;;
4500;SDS011;2263;54.654;9.410;2023-02-21T18:08:24;19.47;;;6.87;;
4500;SDS011;2263;54.654;9.410;2023-02-21T18:11:10;10.70;;;4.83;;
4500;SDS011;2263;54.654;9.410;2023-02-21T18:13:55;18.80;;;5.73;;
4500;SDS011;2263;54.654;9.410;2023-02-21T18:16:40;24.47;;;5.77;;
4500;SDS011;2263;54.654;9.410;2023-02-21T18:19:25;26.07;;;6.90;;
4500;SDS011;2263;54.654;9.410;2023-02-21T18:22:09;21.53;;;4.73;;
4500;SDS011;2263;54.654;9.410;2023-02-21T18:24:53;13.30;;;4.73;;
4500;SDS011;2263;54.654;9.410;2023-02-21T18:27:38;27.40;;;4.97;;
4500;SDS011;2263;54.654;9.410;2023-02-21T18:30:22;22.43;;;7.20;;
4500;SDS011;2263;54.654;9.410;2023-02-21T18:33:07;18.37;;;4.10;;
4500;SDS011;2263;54.654;9.410;2023-02-21T18:35:53;20.17;;;5.17;;
4500;SDS011;2263;54.654;9.410;2023-02-21T18:38:39;27.00;;;4.27;;
4500;SDS011;2263;54.654;9.410;2023-02-21T18:41:24;22.13;;;4.50;;
4500;SDS011;2263;54.654;9.410;2023-02-21T18:44:09;22.60;;;4.43;;
4500;SDS011;2263;54.654;9.410;2023-02-21T18:46:53;18.40;;;4.57;;
4500;SDS011;2263;54.654;9.410;2023-02-21T18:49:39;18.60;;;3.50;;
4500;SDS011;2263;54.654;9.410;2023-02-21T18:52:31;19.67;;;4.40;;
4500;SDS011;2263;54.654;9.410;2023-02-21T18:55:15;18.07;;;4.57;;
4500;SDS011;2263;54.654;9.410;2023-02-21T18:58:01;13.43;;;4.20;;
4500;SDS011;2263;54.654;9.410;2023-02-21T19:00:47;39.30;;;4.70;;
4500;SDS011;2263;54.654;9.410;2023-02-21T19:03:34;15.80;;;4.10;;
4500;SDS011;2263;54.654;9.410;2023-02-21T19:06:19;18.73;;;4.07;;
4500;SDS011;2263;54.654;9.410;2023-02-21T19:09:05;36.37;;;5.40;;
4500;SDS011;2263;54.654;9.410;2023-02-21T19:11:49;15.27;;;3.80;;
4500;SDS011;2263;54.654;9.410;2023-02-21T19:14:34;23.13;;;6.13;;
4500;SDS011;2263;54.654;9.410;2023-02-21T19:17:21;24.40;;;4.93;;
4500;SDS011;2263;54.654;9.410;2023-02-21T19:20:05;13.77;;;3.47;;
4500;SDS011;2263;54.654;9.410;2023-02-21T19:22:52;21.27;;;4.10;;
4500;SDS011;2263;54.654;9.410;2023-02-21T19:25:38;19.07;;;4.40;;
4500;SDS011;2263;54.654;9.410;2023-02-21T19:28:22;11.50;;;3.23;;
4500;SDS011;2263;54.654;9.410;2023-02-21T19:31:11;18.40;;;4.63;;
4500;SDS011;2263;54.654;9.410;2023-02-21T19:33:59;22.40;;;4.80;;
4500;SDS011;2263;54.654;9.410;2023-02-21T19:36:44;14.17;;;4.67;;
4500;SDS011;2263;54.654;9.410;2023-02-21T19:39:28;18.63;;;4.10;;
4500;SDS011;2263;54.654;9.410;2023-02-21T19:42:13;16.67;;;4.40;;
4500;SDS011;2263;54.654;9.410;2023-02-21T19:44:57;13.30;;;4.83;;
4500;SDS011;2263;54.654;9.410;2023-02-21T19:47:42;13.53;;;4.17;;
4500;SDS011;2263;54.654;9.410;2023-02-21T19:50:27;13.37;;;4.93;;
4500;SDS011;2263;54.654;9.410;2023-02-21T19:53:13;15.93;;;5.90;;
4500;SDS011;2263;54.654;9.410;2023-02-21T19:55:58;13.90;;;6.37;;
4500;SDS011;2263;54.654;9.410;2023-02-21T19:58:42;12.17;;;4.70;;
4500;SDS011;2263;54.654;9.410;2023-02-21T20:01:31;22.23;;;6.17;;